• Join FlightAware (Why Join?)
  • Login
  • US Flag 
04:30AM EDT


 

Airport Tracker/Info


-or-


 

Live Flight TrackerFlight Track Log ✈ N98TA ✈ 06-May-2013 ✈ 67R - KAUS

Flight Track Log - Related Links

Times and Time Zones

All times are in EDT time to prevent confusion due to time zone crossing. See the N98TA flight status page for this flight to view local times or setup timezone preferences in your user account.

Time Position Orientation Groundspeed Altitude Reporting Facility
EDT Latitude Longitude Course Direction KTS MPH feet Rate Location/Type
03:05PM 26.5122 -98.6858 34° Northeast 169 194 7,100  Level Houston Center
03:06PM 26.5664 -98.6761 North 185 213 8,400 1,140 Climbing Houston Center
03:07PM 26.6139 -98.6619 15° North 181 208 9,500 960 Climbing Houston Center
03:09PM 26.7118 -98.6386 20° North  Level FlightAware Approximate
03:10PM 26.7575 -98.6197 20° North 178 205 12,600  Level Houston Center
03:11PM 26.6953 -98.5786 34° Northeast  Level FlightAware Approximate
03:11PM 26.8144 -98.6047 13° North 175 201 13,600  Level Houston Center
03:12PM 26.8633 -98.5928 12° North 177 204 14,400 720 Climbing Houston Center
03:14PM 26.9545 -98.5656 13° North  Level FlightAware Approximate
03:15PM 27.0169 -98.5467 14° North 189 217 16,800  Level Houston Center
03:16PM 27.0778 -98.5314 13° North 187 215 17,400 300 Climbing Houston Center
03:17PM 27.1325 -98.5164 14° North 197 227 17,500  Climbing Houston Center
03:18PM 27.1942 -98.5006 13° North 218 251 17,500  Level Houston Center
03:19PM 27.2583 -98.4844 13° North 231 266 17,500  Level Houston Center
03:20PM 27.3228 -98.4661 14° North 237 273 17,500  Level Houston Center
03:21PM 27.3920 -98.4465 14° North  Level FlightAware Approximate
03:21PM 27.3883 -98.4494 13° North 240 276 17,500  Level Houston Center
03:22PM 27.4658 -98.4272 14° North 240 276 17,500  Level Houston Center
03:23PM 27.5306 -98.4106 13° North 239 275 17,500  Level Houston Center
03:24PM 27.5964 -98.3931 13° North 242 278 17,500  Level Houston Center
03:27PM 27.7306 -98.3586 13° North 247 284 17,500  Level Houston Center
03:28PM 27.8097 -98.3353 15° North 246 283 17,500  Level Houston Center
03:30PM 27.9417 -98.3000 13° North 245 282 17,500  Level Houston Center
03:32PM 28.0577 -98.2649 15° North  Level FlightAware Approximate
03:32PM 28.0725 -98.2647 15° North 241 277 17,500  Level Houston Center
03:33PM 28.1525 -98.2433 13° North 245 282 17,500  Level Houston Center
03:34PM 28.2194 -98.2253 13° North 247 284 17,500  Level Houston Center
03:36PM 28.3275 -98.1941 14° North  Level FlightAware Approximate
03:39PM 28.5608 -98.1278 13° North 245 282 17,500  Level Houston Center
03:40PM 28.6281 -98.1086 14° North 248 285 17,500  Level Houston Center
03:42PM 28.7614 -98.0733 13° North 246 283 17,500  Level Houston Center
03:43PM 28.7638 -98.0675 14° North  Level FlightAware Approximate
03:43PM 28.8458 -98.0503 13° North 254 292 17,500  Level Houston Center
03:44PM 28.8264 -98.0504 13° North  Level FlightAware Approximate
03:45PM 28.9433 -98.0188 16° North  Level FlightAware Approximate
03:45PM 28.9806 -98.0128 16° North 246 283 17,500  Level Houston Center
03:47PM 29.0661 -97.9880 14° North  Level FlightAware Approximate
03:47PM 29.1239 -97.9608 14° North 258 297 17,000  Level Houston Center
03:48PM 29.2022 -97.9333 17° North 271 312 16,000 -900 Descending Houston Center
03:49PM 29.2483 -97.9147 19° North 283 326 15,500 -900 Descending Houston Center
03:49PM 29.2761 -97.9025 21° North 280 322 15,100 -1,200 Descending Houston Center
03:50PM 29.3242 -97.8742 27° Northeast 283 326 14,300 -1,260 Descending Houston Center
03:50PM 29.3528 -97.8603 23° Northeast 284 327 13,800 -1,200 Descending Houston Center
03:51PM 29.3983 -97.8358 25° Northeast 290 334 13,100 -900 Descending Houston Center
03:51PM 29.4211 -97.8233 26° Northeast 290 334 12,900 -720 Descending Houston Center
03:52PM 29.4683 -97.7983 25° Northeast 285 328 12,400 -660 Descending Houston Center
03:53PM 29.5569 -97.7522 24° Northeast 259 298 11,600 -1,200 Descending Houston Center
03:55PM 29.6273 -97.7626 353° North  Level FlightAware Approximate
03:56PM 29.7000 -97.6797 353° North 251 289 8,200  Level Houston Center
03:57PM 29.7653 -97.6483 23° Northeast 252 290 7,200 -840 Descending Houston Center
03:58PM 29.8331 -97.6289 14° North 235 270 6,500 -300 Descending Houston Center
04:00PM 29.9642 -97.6393 354° North  Level FlightAware Approximate
04:01PM 30.0272 -97.5972 354° North 228 262 6,100  Level Houston Center
04:03PM 30.1422 -97.6484 339° North  Level FlightAware Approximate
04:03PM 30.1481 -97.5958 339° North 231 266 3,800  Level Houston Center
04:04PM 30.2147 -97.6083 351° North 212 244 2,500 -1,020 Descending Houston Center
04:05PM 30.2539 -97.6225 343° North 173 199 1,800 -720 Descending Houston Center
04:06PM 30.2358 -97.6558 238° Southwest 159 183 1,100 -720 Descending Houston Center
04:08PM 30.1945 -97.6699 213° Southwest  Level Estimated
04:15PM 30.1945 -97.6699 213° Southwest  Level Estimated
04:16PM 30.1945 -97.6699 213° Southwest  Level Estimated
04:17PM 30.1945 -97.6699 213° Southwest  Level Estimated
04:18PM 30.1945 -97.6699 213° Southwest  Level Estimated
04:19PM 30.1945 -97.6699 213° Southwest  Level Estimated
04:20PM 30.1945 -97.6699 213° Southwest  Level Estimated
04:21PM 30.1945 -97.6699 213° Southwest  Level Estimated
04:22PM 30.1945 -97.6699 213° Southwest  Level Estimated